Time;durP1;ratioP1;P1;durP2;ratioP2;P2;SDS_P1;SDS_P2;PMS_P1;PMS_P2;Temp;Humidity;BMP_temperature;BMP_pressure;BME280_temperature;BME280_humidity;BME280_pressure;Samples;Min_cycle;Max_cycle;Signal;HPM_P1;HPM_P2
2022/12/29 00:00:01;;;;;;;1.87;1.70;;;;;;;4.11;100.00;96522.09;4994258;28;20213;-60
2022/12/29 00:02:28;;;;;;;2.33;2.00;;;;;;;4.15;100.00;96534.00;4995085;28;20205;-58
2022/12/29 00:04:56;;;;;;;2.27;2.00;;;;;;;4.16;100.00;96538.31;4994481;28;20510;-59
2022/12/29 00:07:24;;;;;;;4.00;2.10;;;;;;;4.16;100.00;96535.69;4994406;28;20507;-58
2022/12/29 00:09:52;;;;;;;2.00;1.90;;;;;;;4.28;100.00;96532.22;4993964;28;20214;-58
2022/12/29 00:12:19;;;;;;;1.77;1.67;;;;;;;4.25;100.00;96535.06;4994671;28;20306;-57
2022/12/29 00:17:44;;;;;;;2.10;1.90;;;;;;;4.46;100.00;96544.03;4972072;28;20277;-59
2022/12/29 00:36:59;;;;;;;1.97;1.87;;;;;;;4.68;100.00;96517.97;5016438;28;20208;-59
2022/12/29 00:44:55;;;;;;;2.03;1.83;;;;;;;4.77;100.00;96522.56;5012608;28;20235;-59
2022/12/29 00:47:22;;;;;;;2.50;1.57;;;;;;;4.81;100.00;96529.25;5016830;28;20213;-60
2022/12/29 00:49:47;;;;;;;1.93;1.77;;;;;;;4.88;100.00;96532.25;5011593;28;20205;-67
2022/12/29 00:52:14;;;;;;;2.43;2.10;;;;;;;4.86;100.00;96527.13;5010915;28;20212;-59
2022/12/29 00:54:44;;;;;;;2.67;1.60;;;;;;;4.95;100.00;96523.84;5009340;28;20201;-63
2022/12/29 00:57:12;;;;;;;2.40;2.03;;;;;;;5.01;100.00;96520.78;5017610;28;20220;-58
2022/12/29 00:59:39;;;;;;;1.97;1.77;;;;;;;5.07;100.00;96529.97;4995011;28;20198;-58
2022/12/29 01:02:06;;;;;;;1.80;1.70;;;;;;;5.12;100.00;96537.50;4993429;28;20205;-59
2022/12/29 01:04:35;;;;;;;2.10;1.80;;;;;;;5.13;100.00;96539.19;4993428;28;20656;-62
2022/12/29 01:07:02;;;;;;;2.53;2.00;;;;;;;5.20;99.75;96540.41;4994457;28;20220;-59
2022/12/29 01:12:14;;;;;;;1.80;1.70;;;;;;;5.22;100.00;96543.72;4993775;28;20757;-58
2022/12/29 01:14:40;;;;;;;2.67;1.80;;;;;;;5.27;100.00;96546.88;4998084;28;20201;-58
2022/12/29 01:17:08;;;;;;;2.27;2.07;;;;;;;5.30;100.00;96536.16;5007995;28;20227;-58
2022/12/29 01:19:35;;;;;;;2.30;2.10;;;;;;;5.37;100.00;96542.59;5004393;28;20201;-58
2022/12/29 01:22:02;;;;;;;2.20;1.90;;;;;;;5.37;100.00;96542.59;4998995;28;20201;-59
2022/12/29 01:24:29;;;;;;;2.00;1.90;;;;;;;5.34;100.00;96541.06;5007198;28;20209;-63
2022/12/29 01:26:55;;;;;;;2.10;1.70;;;;;;;5.35;100.00;96537.47;4994580;28;20201;-58
2022/12/29 01:29:23;;;;;;;2.00;1.80;;;;;;;5.40;100.00;96537.13;4993178;28;20213;-59
2022/12/29 01:31:50;;;;;;;2.70;1.83;;;;;;;5.42;100.00;96527.38;4993322;28;20216;-58
2022/12/29 01:34:16;;;;;;;1.90;1.80;;;;;;;5.42;100.00;96524.75;4992670;28;20201;-58
2022/12/29 01:36:43;;;;;;;2.10;1.90;;;;;;;5.42;100.00;96536.06;4992968;28;20556;-58
2022/12/29 01:39:09;;;;;;;2.40;2.20;;;;;;;5.48;100.00;96537.41;4991698;28;20220;-58
2022/12/29 01:41:36;;;;;;;2.70;2.20;;;;;;;5.43;100.00;96531.66;4993214;28;20223;-58
2022/12/29 01:44:02;;;;;;;1.87;1.77;;;;;;;5.46;100.00;96537.50;4997894;28;20232;-59
2022/12/29 01:46:32;;;;;;;2.47;2.27;;;;;;;5.48;100.00;96542.66;5003391;28;20205;-58
2022/12/29 01:49:03;;;;;;;2.90;1.73;;;;;;;5.52;100.00;96538.84;5002322;28;20215;-60
2022/12/29 01:51:32;;;;;;;2.43;1.80;;;;;;;5.49;100.00;96547.75;5003438;28;20197;-59
2022/12/29 01:54:01;;;;;;;2.20;2.00;;;;;;;5.51;100.00;96539.78;5004619;28;20213;-59
2022/12/29 01:56:27;;;;;;;2.97;1.70;;;;;;;5.51;100.00;96529.31;5004478;28;20665;-58
2022/12/29 01:58:57;;;;;;;2.27;1.90;;;;;;;5.53;100.00;96537.88;5004519;28;20219;-59
2022/12/29 02:01:24;;;;;;;1.70;1.60;;;;;;;5.59;100.00;96531.34;5005802;28;20201;-58
2022/12/29 02:03:53;;;;;;;2.03;1.93;;;;;;;5.54;100.00;96534.31;5004610;28;20219;-58
2022/12/29 02:06:22;;;;;;;1.87;1.67;;;;;;;5.53;100.00;96536.09;5004364;28;20204;-59
2022/12/29 02:08:51;;;;;;;1.70;1.60;;;;;;;5.55;100.00;96522.88;5007924;28;20203;-57
2022/12/29 02:11:18;;;;;;;1.77;1.67;;;;;;;5.55;100.00;96520.25;5014312;28;20215;-58
2022/12/29 02:13:44;;;;;;;2.07;1.70;;;;;;;5.58;100.00;96520.03;5017621;28;20208;-58
2022/12/29 02:16:22;;;;;;;2.40;2.20;;;;;;;5.64;100.00;96521.34;5021605;28;20268;-58
2022/12/29 02:18:55;;;;;;;1.83;1.73;;;;;;;5.64;100.00;96530.03;5010374;28;20536;-58
2022/12/29 02:21:42;;;;;;;1.73;1.50;;;;;;;5.65;100.00;96518.59;5002724;28;20208;-58
2022/12/29 02:24:41;;;;;;;1.60;1.50;;;;;;;5.68;99.91;96521.00;5001586;28;20208;-58
2022/12/29 02:27:28;;;;;;;2.10;1.60;;;;;;;5.67;100.00;96529.81;5002228;28;20208;-58
2022/12/29 02:30:07;;;;;;;1.97;1.80;;;;;;;5.74;100.00;96525.75;5001828;28;20212;-58
2022/12/29 02:32:40;;;;;;;1.63;1.43;;;;;;;5.72;100.00;96521.59;5001865;28;20207;-57
2022/12/29 02:35:11;;;;;;;1.83;1.70;;;;;;;5.73;100.00;96524.13;5001491;28;20205;-58
2022/12/29 02:37:42;;;;;;;1.77;1.67;;;;;;;5.77;100.00;96520.31;5001249;28;20213;-58
2022/12/29 02:40:19;;;;;;;2.10;1.90;;;;;;;5.76;100.00;96515.16;5001625;28;20201;-58
2022/12/29 02:42:49;;;;;;;1.70;1.60;;;;;;;5.77;100.00;96514.22;5001007;28;20274;-58
2022/12/29 02:45:22;;;;;;;1.87;1.77;;;;;;;5.90;98.56;96510.56;5001727;28;20215;-58
2022/12/29 02:47:53;;;;;;;1.80;1.70;;;;;;;5.89;98.99;96513.31;5001400;28;20685;-58
2022/12/29 02:50:25;;;;;;;1.50;1.40;;;;;;;5.90;99.21;96507.94;5001646;28;20213;-58
2022/12/29 02:52:54;;;;;;;3.43;1.70;;;;;;;5.91;100.00;96507.00;5001795;28;20201;-58
2022/12/29 02:55:19;;;;;;;1.50;1.40;;;;;;;5.96;99.30;96502.22;5001371;28;20209;-58
2022/12/29 02:57:46;;;;;;;1.60;1.50;;;;;;;5.97;100.00;96505.69;5001091;28;20227;-58
2022/12/29 03:00:15;;;;;;;1.70;1.60;;;;;;;5.99;99.13;96501.97;5000977;28;20633;-57
2022/12/29 03:03:02;;;;;;;1.60;1.50;;;;;;;6.07;98.75;96505.81;5001612;28;20588;-58
2022/12/29 03:05:43;;;;;;;3.10;1.70;;;;;;;6.06;98.88;96504.97;5000952;28;20223;-59
2022/12/29 03:08:20;;;;;;;1.80;1.30;;;;;;;6.14;99.14;96507.00;5001188;28;20216;-58
2022/12/29 03:10:49;;;;;;;2.43;1.80;;;;;;;6.17;99.21;96498.88;5000984;28;20204;-58
2022/12/29 03:16:17;;;;;;;2.03;1.50;;;;;;;6.14;100.00;96493.88;5001267;28;20216;-59
2022/12/29 03:18:56;;;;;;;2.83;1.57;;;;;;;6.19;100.00;96494.34;5004185;28;20513;-59
2022/12/29 03:22:26;;;;;;;2.07;1.60;;;;;;;6.27;100.00;96489.34;5005928;28;20208;-58
2022/12/29 03:24:16;;;;;;;3.60;2.30;;;;;;;6.46;96.57;96486.94;5004078;28;20217;-58
2022/12/29 03:26:43;;;;;;;2.40;1.60;;;;;;;6.55;97.24;96490.63;5004276;28;20216;-58
2022/12/29 03:29:10;;;;;;;2.00;1.80;;;;;;;6.59;95.56;96479.72;5007985;28;20209;-59
2022/12/29 03:31:38;;;;;;;3.07;1.67;;;;;;;6.68;96.14;96486.91;5011887;28;20288;-58
2022/12/29 03:34:07;;;;;;;2.57;2.10;;;;;;;6.79;93.57;96473.72;5011856;28;20540;-59
2022/12/29 03:36:38;;;;;;;1.90;1.80;;;;;;;6.89;91.58;96477.28;5010069;28;20205;-58
2022/12/29 03:39:11;;;;;;;1.60;1.50;;;;;;;6.96;91.84;96483.69;5008622;28;20559;-58
2022/12/29 03:41:38;;;;;;;1.70;1.60;;;;;;;7.03;94.56;96475.31;5004579;28;20625;-59
2022/12/29 03:44:06;;;;;;;1.87;1.77;;;;;;;7.12;92.50;96475.38;4998734;28;20239;-58
2022/12/29 03:46:33;;;;;;;2.20;2.00;;;;;;;7.18;93.46;96476.69;4994959;28;20530;-58
2022/12/29 03:48:59;;;;;;;3.43;2.37;;;;;;;7.26;91.61;96479.53;4993602;28;20648;-58
2022/12/29 03:51:27;;;;;;;1.93;1.50;;;;;;;7.29;91.78;96487.16;4994394;28;20236;-58
2022/12/29 03:53:54;;;;;;;1.87;1.77;;;;;;;7.29;94.24;96480.13;4994174;28;20213;-58
2022/12/29 03:56:20;;;;;;;1.87;1.77;;;;;;;7.27;93.57;96487.28;4994808;28;20224;-58
2022/12/29 03:58:47;;;;;;;2.13;1.90;;;;;;;7.29;93.79;96471.38;4994260;28;20316;-58
2022/12/29 04:01:14;;;;;;;1.90;1.80;;;;;;;7.28;93.30;96480.22;4993354;28;20533;-58
2022/12/29 04:03:40;;;;;;;2.10;1.50;;;;;;;7.27;94.79;96489.06;4993740;28;20946;-59
2022/12/29 04:06:07;;;;;;;1.97;1.70;;;;;;;7.24;92.25;96473.53;4994578;28;20206;-59
2022/12/29 04:08:35;;;;;;;2.13;1.90;;;;;;;7.26;94.13;96469.81;4994155;28;20201;-59
2022/12/29 04:11:01;;;;;;;1.80;1.70;;;;;;;7.23;94.16;96464.81;4994301;28;20219;-58
2022/12/29 04:13:28;;;;;;;1.77;1.67;;;;;;;7.27;95.38;96468.03;4994534;28;20633;-58
2022/12/29 04:15:54;;;;;;;1.80;1.70;;;;;;;7.31;95.10;96459.75;4994632;28;20637;-57
2022/12/29 04:18:21;;;;;;;3.33;1.70;;;;;;;7.30;94.24;96467.75;4994337;28;20225;-58
2022/12/29 04:21:03;;;;;;;2.10;1.90;;;;;;;7.28;94.85;96456.56;4994346;28;20236;-58
2022/12/29 04:23:31;;;;;;;2.13;1.80;;;;;;;7.32;94.15;96460.59;5000892;28;20217;-57
2022/12/29 04:25:59;;;;;;;1.80;1.70;;;;;;;7.36;93.33;96456.75;5016863;28;21187;-57
2022/12/29 04:28:26;;;;;;;2.00;1.90;;;;;;;7.44;91.95;96449.03;5010834;28;20227;-58
2022/12/29 04:30:52;;;;;;;2.20;1.87;;;;;;;7.54;89.25;96439.44;4995234;28;20541;-58
2022/12/29 04:33:19;;;;;;;2.90;1.80;;;;;;;7.65;87.13;96444.59;5017178;28;20224;-58
2022/12/29 04:35:45;;;;;;;1.70;1.60;;;;;;;7.74;86.23;96438.56;5019202;28;20177;-58
2022/12/29 04:38:12;;;;;;;1.63;1.53;;;;;;;7.83;83.43;96440.41;5004568;28;20217;-58
2022/12/29 04:40:39;;;;;;;1.93;1.83;;;;;;;7.92;83.29;96430.91;4993251;28;20197;-59
2022/12/29 04:43:07;;;;;;;2.57;1.73;;;;;;;7.99;81.76;96435.50;4993713;28;20263;-58
2022/12/29 04:45:33;;;;;;;1.90;1.80;;;;;;;8.06;82.01;96440.22;5007207;28;20201;-58
2022/12/29 04:48:00;;;;;;;2.07;1.60;;;;;;;8.12;80.31;96439.69;5012477;28;20208;-59
2022/12/29 04:50:26;;;;;;;2.00;1.70;;;;;;;8.11;79.98;96435.41;5014129;28;20214;-58
2022/12/29 04:52:54;;;;;;;1.70;1.60;;;;;;;8.12;78.45;96444.97;5002667;28;20212;-58
2022/12/29 04:55:21;;;;;;;1.77;1.50;;;;;;;8.10;80.81;96452.19;4993566;28;20209;-58
2022/12/29 04:57:47;;;;;;;2.60;1.53;;;;;;;8.05;81.78;96454.34;4993102;28;20240;-59
2022/12/29 05:00:15;;;;;;;1.97;1.57;;;;;;;8.04;78.85;96444.81;4993631;28;20201;-59
2022/12/29 05:02:42;;;;;;;1.63;1.53;;;;;;;8.07;77.34;96448.00;4993615;28;20209;-58
2022/12/29 05:05:09;;;;;;;1.80;1.63;;;;;;;8.06;76.74;96440.22;4993229;28;20220;-58
2022/12/29 05:07:35;;;;;;;2.47;1.50;;;;;;;8.09;78.36;96435.53;4993155;28;20205;-60
2022/12/29 05:10:02;;;;;;;2.23;1.70;;;;;;;8.12;76.96;96443.16;4993144;28;20299;-58
2022/12/29 05:12:30;;;;;;;1.53;1.47;;;;;;;8.11;78.07;96438.06;4992384;28;20217;-58
2022/12/29 05:14:57;;;;;;;1.73;1.47;;;;;;;8.12;77.13;96430.00;4993049;28;20201;-58
2022/12/29 05:17:25;;;;;;;1.50;1.40;;;;;;;8.10;79.67;96439.00;4994818;28;20308;-59
2022/12/29 05:19:51;;;;;;;2.17;1.50;;;;;;;8.09;80.16;96439.97;4993559;28;20204;-58
2022/12/29 05:22:18;;;;;;;2.67;1.67;;;;;;;8.20;72.92;96438.06;4995186;28;20202;-58
2022/12/29 05:24:44;;;;;;;1.67;1.57;;;;;;;8.25;75.89;96445.59;4992625;28;20591;-58
2022/12/29 05:27:12;;;;;;;1.53;1.43;;;;;;;8.30;74.01;96448.66;4992929;28;20201;-58
2022/12/29 05:29:41;;;;;;;1.60;1.43;;;;;;;8.35;72.04;96446.47;4992870;28;20294;-59
2022/12/29 05:32:08;;;;;;;2.53;1.70;;;;;;;8.34;76.94;96445.63;4992986;28;20224;-58
2022/12/29 05:34:36;;;;;;;2.47;2.00;;;;;;;8.27;79.90;96444.47;4992974;28;20201;-57
2022/12/29 05:37:03;;;;;;;1.37;1.27;;;;;;;8.23;80.81;96439.59;4992712;28;20209;-59
2022/12/29 05:39:29;;;;;;;2.30;1.20;;;;;;;8.28;77.14;96445.31;4992490;28;20275;-59
2022/12/29 05:41:56;;;;;;;3.27;1.50;;;;;;;8.24;79.42;96449.19;4992778;28;20574;-59
2022/12/29 05:44:22;;;;;;;2.70;1.60;;;;;;;8.17;81.16;96448.03;4992421;28;20248;-58
2022/12/29 05:46:49;;;;;;;2.40;1.80;;;;;;;8.10;79.96;96457.44;4992656;28;20205;-58
2022/12/29 05:49:15;;;;;;;2.37;1.37;;;;;;;8.01;83.72;96454.63;4992791;28;20198;-57
2022/12/29 05:51:43;;;;;;;2.97;1.60;;;;;;;7.92;86.06;96460.69;4992758;28;20209;-58
2022/12/29 05:54:09;;;;;;;1.63;1.50;;;;;;;7.93;85.05;96456.28;4992015;28;20219;-58
2022/12/29 05:56:38;;;;;;;2.00;1.57;;;;;;;7.83;88.03;96472.00;4992585;28;20201;-59
2022/12/29 05:59:05;;;;;;;2.23;1.40;;;;;;;7.74;86.72;96464.88;4992625;28;20240;-57
2022/12/29 06:01:33;;;;;;;1.90;1.80;;;;;;;7.70;87.22;96470.53;4992670;28;20304;-58
2022/12/29 06:03:59;;;;;;;2.63;1.50;;;;;;;7.66;90.01;96474.38;4992774;28;20206;-58
2022/12/29 06:06:26;;;;;;;1.63;1.53;;;;;;;7.63;88.25;96464.13;4992248;28;20205;-58
2022/12/29 06:08:54;;;;;;;1.50;1.40;;;;;;;7.63;88.35;96472.00;4992203;28;20201;-58
2022/12/29 06:11:20;;;;;;;2.43;1.67;;;;;;;7.69;85.44;96464.44;4992066;28;20640;-59
2022/12/29 06:13:46;;;;;;;1.33;1.33;;;;;;;7.75;83.45;96465.72;4992589;28;20201;-58
2022/12/29 06:16:13;;;;;;;1.67;1.43;;;;;;;7.80;80.30;96469.63;4991903;28;20216;-58
2022/12/29 06:18:39;;;;;;;3.00;1.30;;;;;;;7.91;73.72;96464.28;4992672;28;20220;-58
2022/12/29 06:21:06;;;;;;;2.50;1.20;;;;;;;7.96;74.53;96469.16;4991929;28;20304;-58
2022/12/29 06:23:33;;;;;;;1.83;1.50;;;;;;;8.08;76.87;96468.09;4991404;28;20545;-58
2022/12/29 06:26:01;;;;;;;1.70;1.37;;;;;;;8.22;73.88;96467.75;4990845;28;20205;-58
2022/12/29 06:28:27;;;;;;;1.50;1.40;;;;;;;8.30;75.27;96480.28;4991973;28;20227;-58
2022/12/29 06:30:53;;;;;;;1.70;1.60;;;;;;;8.39;75.46;96479.50;4992260;28;20212;-58
2022/12/29 06:33:20;;;;;;;1.33;1.30;;;;;;;8.49;75.53;96477.72;4992359;28;20205;-59
2022/12/29 06:35:47;;;;;;;1.73;1.33;;;;;;;8.61;74.02;96468.72;4991687;28;20543;-58
2022/12/29 06:38:14;;;;;;;1.60;1.50;;;;;;;8.68;74.06;96472.50;4992141;28;20229;-58
2022/12/29 06:40:41;;;;;;;1.77;1.43;;;;;;;8.72;75.20;96475.69;4991234;28;20201;-58
2022/12/29 06:43:08;;;;;;;1.70;1.60;;;;;;;8.72;75.72;96476.53;4990632;28;20241;-58
2022/12/29 06:45:35;;;;;;;1.70;1.60;;;;;;;8.80;74.93;96467.94;4992142;28;20242;-58
2022/12/29 06:48:01;;;;;;;2.50;1.60;;;;;;;8.83;75.67;96468.50;4992106;28;20201;-59
2022/12/29 06:50:28;;;;;;;2.30;1.97;;;;;;;8.85;76.40;96463.94;4993653;28;20224;-58
2022/12/29 06:52:54;;;;;;;2.90;1.83;;;;;;;8.88;75.48;96460.19;5016041;28;20205;-58
2022/12/29 06:55:22;;;;;;;2.23;1.97;;;;;;;8.94;74.64;96471.00;5019131;28;20184;-58
2022/12/29 06:57:48;;;;;;;2.57;1.80;;;;;;;8.97;75.40;96470.75;5019547;28;20248;-58
2022/12/29 07:00:17;;;;;;;2.13;1.80;;;;;;;9.03;76.58;96455.34;4996008;28;20217;-58
2022/12/29 07:02:44;;;;;;;1.63;1.53;;;;;;;9.03;77.36;96468.53;4996274;28;20201;-58
2022/12/29 07:05:10;;;;;;;1.87;1.67;;;;;;;8.97;78.59;96467.25;4995861;28;20217;-58
2022/12/29 07:07:37;;;;;;;2.33;2.13;;;;;;;8.99;77.39;96476.72;4996267;28;20205;-59
2022/12/29 07:10:04;;;;;;;2.67;2.20;;;;;;;9.03;78.09;96484.34;4995319;28;20205;-58
2022/12/29 07:12:30;;;;;;;2.27;2.00;;;;;;;9.09;77.59;96475.88;4995321;28;20213;-59
2022/12/29 07:14:57;;;;;;;2.93;2.20;;;;;;;9.15;77.54;96489.34;4995401;28;20209;-58
2022/12/29 07:17:25;;;;;;;3.23;2.10;;;;;;;9.19;77.39;96467.00;5001584;28;20209;-59
2022/12/29 07:19:51;;;;;;;3.00;2.00;;;;;;;9.23;76.17;96475.47;5014578;28;20236;-58
2022/12/29 07:22:18;;;;;;;4.07;2.20;;;;;;;9.33;76.43;96469.22;5015341;28;20197;-59
2022/12/29 07:24:44;;;;;;;2.37;2.07;;;;;;;9.40;75.98;96472.13;5015315;28;20211;-60
2022/12/29 07:27:11;;;;;;;4.93;2.57;;;;;;;9.39;78.37;96465.19;5017386;28;20189;-57
2022/12/29 07:29:38;;;;;;;3.73;2.07;;;;;;;9.42;76.95;96460.44;5011978;28;20547;-58
2022/12/29 07:32:05;;;;;;;2.30;2.10;;;;;;;9.49;75.96;96455.47;4996183;28;20201;-59
2022/12/29 07:34:34;;;;;;;3.73;2.37;;;;;;;9.52;75.19;96467.56;4995467;28;20220;-58
2022/12/29 07:37:00;;;;;;;2.60;2.10;;;;;;;9.56;74.70;96461.03;4995274;28;20213;-58
2022/12/29 07:39:27;;;;;;;1.93;1.83;;;;;;;9.56;75.22;96461.03;4995435;28;20239;-59
2022/12/29 07:41:53;;;;;;;1.67;1.47;;;;;;;9.53;76.45;96462.09;4995565;28;20220;-59
2022/12/29 07:44:20;;;;;;;2.90;1.97;;;;;;;9.48;76.45;96446.72;4994001;28;20241;-58
2022/12/29 07:46:46;;;;;;;2.43;2.00;;;;;;;9.55;75.05;96454.06;4994686;28;20201;-58
2022/12/29 07:49:13;;;;;;;2.30;2.10;;;;;;;9.55;76.15;96456.69;4994400;28;20214;-58
2022/12/29 07:51:40;;;;;;;2.40;1.90;;;;;;;9.66;74.41;96465.31;4994737;28;20613;-57
2022/12/29 07:54:09;;;;;;;2.40;1.50;;;;;;;9.68;74.57;96468.63;4995075;28;20209;-58
2022/12/29 07:56:36;;;;;;;2.53;1.93;;;;;;;9.67;73.94;96445.84;4995106;28;20208;-58
2022/12/29 07:59:02;;;;;;;2.10;1.73;;;;;;;9.72;73.65;96442.78;4994867;28;20233;-60
2022/12/29 08:01:29;;;;;;;1.83;1.67;;;;;;;9.75;74.54;96455.69;4996034;28;20874;-58
2022/12/29 08:03:56;;;;;;;3.63;1.50;;;;;;;9.80;74.35;96464.88;4995748;28;20216;-58
2022/12/29 08:06:22;;;;;;;1.90;1.80;;;;;;;9.80;75.25;96486.00;4997256;28;20209;-58
2022/12/29 08:08:50;;;;;;;1.77;1.60;;;;;;;9.90;74.48;96484.16;4997022;28;20202;-64
2022/12/29 08:11:17;;;;;;;2.30;2.07;;;;;;;9.89;73.79;96482.47;4998744;28;20213;-56
2022/12/29 08:13:43;;;;;;;2.20;1.80;;;;;;;9.91;76.12;96491.13;5002272;28;20298;-57
2022/12/29 08:16:10;;;;;;;2.87;1.93;;;;;;;9.92;74.98;96495.41;5004765;28;20208;-57
2022/12/29 08:18:36;;;;;;;5.20;1.97;;;;;;;9.88;72.98;96501.13;4995124;28;20243;-56
2022/12/29 08:21:03;;;;;;;2.87;1.40;;;;;;;9.93;74.22;96497.06;5010951;28;20212;-56
2022/12/29 08:23:30;;;;;;;3.60;1.40;;;;;;;9.97;72.48;96485.25;5016102;28;20221;-56
2022/12/29 08:26:02;;;;;;;1.83;1.43;;;;;;;10.00;73.06;96489.41;5010919;28;20209;-57
2022/12/29 08:28:29;;;;;;;1.70;1.40;;;;;;;10.07;73.52;96493.13;4993973;28;20197;-57
2022/12/29 08:30:58;;;;;;;2.07;1.80;;;;;;;10.19;72.87;96497.31;4994110;28;20209;-56
2022/12/29 08:33:25;;;;;;;1.93;1.70;;;;;;;10.33;71.09;96490.72;4994417;28;20216;-57
2022/12/29 08:35:51;;;;;;;2.27;1.60;;;;;;;10.35;70.77;96486.13;4993859;28;20213;-56
2022/12/29 08:38:18;;;;;;;1.63;1.53;;;;;;;10.42;70.90;96492.47;4994055;28;20233;-57
2022/12/29 08:40:45;;;;;;;2.53;1.60;;;;;;;10.38;70.30;96491.13;4993602;28;20571;-57
2022/12/29 08:43:12;;;;;;;4.47;1.70;;;;;;;10.30;68.27;96488.38;4993753;28;20232;-58
2022/12/29 08:45:39;;;;;;;2.40;1.87;;;;;;;10.25;68.17;96488.81;4994615;28;20216;-58
2022/12/29 08:48:07;;;;;;;2.30;1.60;;;;;;;10.22;69.06;96493.53;4997771;28;20216;-58
2022/12/29 08:50:34;;;;;;;1.90;1.80;;;;;;;10.21;68.18;96483.94;4996501;28;20213;-58
2022/12/29 08:53:00;;;;;;;3.33;2.30;;;;;;;10.16;68.06;96494.97;4997699;28;20209;-58
2022/12/29 08:55:26;;;;;;;2.67;1.83;;;;;;;10.13;69.04;96508.41;4996520;28;20209;-58
2022/12/29 08:57:53;;;;;;;2.60;2.40;;;;;;;10.21;68.08;96505.09;4997846;28;20827;-58
2022/12/29 09:00:22;;;;;;;2.47;2.27;;;;;;;10.31;67.88;96500.59;4997599;28;20321;-58
2022/12/29 09:02:49;;;;;;;3.60;2.40;;;;;;;10.35;68.58;96515.19;4997819;28;20217;-58
2022/12/29 09:05:15;;;;;;;3.07;2.47;;;;;;;10.40;69.21;96515.59;4993634;28;20220;-57
2022/12/29 09:07:41;;;;;;;3.57;2.17;;;;;;;10.51;69.47;96496.91;4993664;28;20197;-58
2022/12/29 09:10:08;;;;;;;3.20;2.30;;;;;;;10.82;67.24;96510.66;4993020;28;20201;-58
2022/12/29 09:12:35;;;;;;;3.83;2.33;;;;;;;10.99;67.15;96508.06;4993416;28;20224;-58
2022/12/29 09:15:01;;;;;;;1.63;1.50;;;;;;;11.38;66.18;96502.50;4992922;28;20206;-58
2022/12/29 09:17:45;;;;;;;2.07;1.87;;;;;;;11.77;65.02;96506.50;4993388;28;20202;-58
2022/12/29 09:20:14;;;;;;;2.20;1.97;;;;;;;12.37;62.02;96517.19;4993199;28;20213;-58
2022/12/29 09:22:41;;;;;;;1.70;1.60;;;;;;;12.63;60.59;96523.31;4993235;28;20220;-58
2022/12/29 09:25:08;;;;;;;3.37;1.80;;;;;;;13.10;60.12;96523.69;4992034;28;20208;-58
2022/12/29 09:27:35;;;;;;;4.67;1.90;;;;;;;13.49;59.79;96515.97;4992437;28;20656;-58
2022/12/29 09:30:02;;;;;;;1.63;1.53;;;;;;;13.31;59.73;96523.25;4993113;28;20537;-58
2022/12/29 09:32:30;;;;;;;2.57;1.60;;;;;;;13.21;58.72;96510.13;4993010;28;20209;-58
2022/12/29 09:34:56;;;;;;;2.63;1.70;;;;;;;13.08;59.45;96511.53;4998220;28;20205;-58
2022/12/29 09:37:28;;;;;;;2.78;1.85;;;;;;;12.94;60.15;96516.47;4998762;28;20220;-58
2022/12/29 09:39:54;;;;;;;2.80;1.50;;;;;;;12.73;61.80;96517.88;4996689;28;20209;-58
2022/12/29 09:42:25;;;;;;;2.10;1.80;;;;;;;12.58;62.58;96520.28;4996770;28;20213;-58
2022/12/29 09:45:03;;;;;;;2.00;1.80;;;;;;;12.45;62.16;96514.59;4993497;28;20236;-58
2022/12/29 09:47:32;;;;;;;3.60;2.00;;;;;;;12.31;63.52;96523.13;4994333;28;20207;-58
2022/12/29 09:50:03;;;;;;;2.50;1.87;;;;;;;12.11;66.74;96521.69;4993468;28;20202;-58
2022/12/29 09:52:32;;;;;;;1.60;1.47;;;;;;;12.01;64.83;96526.25;4992934;28;20272;-58
2022/12/29 09:55:02;;;;;;;2.57;1.83;;;;;;;11.93;64.85;96525.19;4992275;28;20197;-58
2022/12/29 09:57:33;;;;;;;3.03;2.27;;;;;;;11.85;66.58;96522.47;4992237;28;20657;-59
2022/12/29 10:00:04;;;;;;;2.33;1.70;;;;;;;11.66;64.99;96504.06;4992013;28;20229;-58
2022/12/29 10:02:39;;;;;;;3.00;2.00;;;;;;;11.60;65.88;96506.50;4992185;28;20193;-59
2022/12/29 10:05:17;;;;;;;1.90;1.60;;;;;;;11.59;66.32;96510.97;4992348;28;20208;-59
2022/12/29 10:07:47;;;;;;;2.43;1.50;;;;;;;11.58;69.56;96497.88;4992298;28;20220;-58
2022/12/29 10:10:24;;;;;;;2.57;2.27;;;;;;;11.60;67.42;96504.69;4992659;28;20531;-58
2022/12/29 10:13:02;;;;;;;2.83;1.90;;;;;;;11.71;66.41;96514.25;4992501;28;20209;-62
2022/12/29 10:15:40;;;;;;;2.30;1.70;;;;;;;11.66;69.31;96514.66;4992560;28;20612;-58
2022/12/29 10:18:22;;;;;;;2.57;2.10;;;;;;;11.67;68.53;96516.34;4992183;28;20213;-58
2022/12/29 10:20:51;;;;;;;4.10;1.80;;;;;;;11.72;67.65;96500.03;4992640;28;20236;-59
2022/12/29 10:23:26;;;;;;;2.27;1.83;;;;;;;12.04;66.39;96494.13;4991673;28;20545;-58
2022/12/29 10:25:54;;;;;;;2.87;1.70;;;;;;;12.63;65.16;96486.16;4991214;28;20212;-59
2022/12/29 10:28:24;;;;;;;3.10;1.83;;;;;;;12.88;64.19;96479.97;4991625;28;20216;-58
2022/12/29 10:30:52;;;;;;;3.10;2.00;;;;;;;12.86;65.07;96486.41;4992539;28;20312;-59
2022/12/29 10:33:26;;;;;;;2.23;1.83;;;;;;;12.84;64.35;96491.88;4992202;28;20212;-58
2022/12/29 10:35:53;;;;;;;1.60;1.50;;;;;;;12.73;64.41;96497.47;4991751;28;20280;-58
2022/12/29 10:38:25;;;;;;;2.30;1.90;;;;;;;12.56;64.85;96484.31;4991648;28;20213;-58
2022/12/29 10:40:55;;;;;;;2.60;1.73;;;;;;;12.34;66.06;96478.56;4991018;28;20221;-58
2022/12/29 10:43:26;;;;;;;2.33;1.70;;;;;;;12.28;66.44;96478.38;4991615;28;20299;-58
2022/12/29 10:45:53;;;;;;;3.40;1.93;;;;;;;12.20;66.16;96478.31;4991733;28;20208;-58
2022/12/29 10:48:23;;;;;;;2.77;1.77;;;;;;;12.09;66.67;96473.28;4991579;28;20228;-58
2022/12/29 10:50:51;;;;;;;3.10;2.00;;;;;;;12.06;67.16;96465.63;4991240;28;20673;-59
2022/12/29 10:53:21;;;;;;;4.43;2.00;;;;;;;11.96;66.13;96477.19;4992406;28;20210;-59
2022/12/29 10:55:48;;;;;;;3.77;2.30;;;;;;;11.92;68.51;96472.34;4991258;28;20213;-59
2022/12/29 10:58:15;;;;;;;3.23;2.30;;;;;;;12.02;67.68;96465.13;4992070;28;20205;-58
2022/12/29 11:00:42;;;;;;;2.87;2.03;;;;;;;12.05;67.88;96474.56;4991649;28;20237;-59
2022/12/29 11:03:33;;;;;;;2.00;1.90;;;;;;;12.12;67.37;96457.03;4991818;28;20197;-59
2022/12/29 11:06:03;;;;;;;3.23;2.23;;;;;;;12.25;67.67;96465.44;4992778;28;20209;-58
2022/12/29 11:08:33;;;;;;;2.20;2.00;;;;;;;12.32;67.51;96455.84;4992107;28;20212;-58
2022/12/29 11:11:01;;;;;;;3.73;2.03;;;;;;;12.39;68.27;96447.13;4991576;28;20201;-58
2022/12/29 11:13:31;;;;;;;2.13;1.73;;;;;;;12.45;67.21;96446.47;4992115;28;20240;-58
2022/12/29 11:15:59;;;;;;;2.63;1.70;;;;;;;12.62;67.79;96446.50;4991907;28;20220;-59
2022/12/29 11:18:27;;;;;;;2.73;1.93;;;;;;;12.71;67.95;96442.91;4991825;28;20263;-58
2022/12/29 11:20:58;;;;;;;4.03;1.97;;;;;;;12.68;65.83;96446.69;4991316;28;20229;-58
2022/12/29 11:23:30;;;;;;;1.67;1.57;;;;;;;12.77;68.37;96456.38;4991893;28;20225;-59
2022/12/29 11:26:08;;;;;;;2.87;1.97;;;;;;;12.77;65.61;96451.06;4990918;28;20292;-59
2022/12/29 11:28:35;;;;;;;2.20;1.80;;;;;;;12.78;66.49;96447.41;4991024;28;20212;-59
2022/12/29 11:31:03;;;;;;;2.37;2.00;;;;;;;12.74;67.58;96451.38;4990647;28;20212;-57
2022/12/29 11:33:30;;;;;;;3.23;1.90;;;;;;;12.60;65.72;96448.50;4991175;28;21305;-59
2022/12/29 11:36:00;;;;;;;5.13;2.00;;;;;;;12.55;67.44;96429.56;4991234;28;20201;-59
2022/12/29 11:38:31;;;;;;;2.40;2.00;;;;;;;12.46;69.59;96436.69;4991661;28;20267;-58
2022/12/29 11:40:58;;;;;;;3.47;2.10;;;;;;;12.41;68.58;96421.25;4993983;28;20221;-58
2022/12/29 11:43:30;;;;;;;1.97;1.87;;;;;;;12.34;68.73;96411.44;4994603;28;20251;-57
2022/12/29 11:45:57;;;;;;;3.10;2.10;;;;;;;12.31;69.27;96409.09;4995146;28;20212;-57
2022/12/29 11:48:23;;;;;;;2.00;1.90;;;;;;;12.26;68.69;96403.44;5004129;28;20201;-58
2022/12/29 11:50:53;;;;;;;2.27;1.60;;;;;;;12.21;67.49;96409.25;5015987;28;20265;-58
2022/12/29 11:53:22;;;;;;;1.83;1.60;;;;;;;12.16;67.66;96424.78;5006919;28;20201;-58
2022/12/29 11:55:54;;;;;;;2.83;1.63;;;;;;;12.13;68.60;96424.25;5001509;28;20323;-57
2022/12/29 11:58:20;;;;;;;1.93;1.30;;;;;;;12.09;70.23;96418.44;5018023;28;20208;-57
2022/12/29 12:00:47;;;;;;;4.13;1.90;;;;;;;12.08;70.65;96415.97;5018274;28;20215;-58
2022/12/29 12:03:16;;;;;;;2.97;1.77;;;;;;;12.07;72.14;96411.66;4998507;28;20626;-58
2022/12/29 12:05:50;;;;;;;1.53;1.43;;;;;;;12.04;71.54;96393.41;4994817;28;20629;-58
2022/12/29 12:08:23;;;;;;;2.53;1.83;;;;;;;11.98;72.72;96378.97;4994885;28;20284;-57
2022/12/29 12:10:54;;;;;;;2.00;1.20;;;;;;;12.04;72.80;96373.06;4995708;28;20289;-57
2022/12/29 12:13:24;;;;;;;2.17;1.80;;;;;;;12.07;72.97;96377.19;4996176;28;20225;-58